Share

رشيد, مصر

Alexandria International (HEAX) Elev 23 ft | 31.18 °N, 29.95 °E | Change Station

Current weather conditions updated 23 minutes ago

Clear
صافية
66 °F
Feels Like 66 °F
N
7
ريح متغير ريح from شرق
شروق الشمس 5:28 AM
غروب الشمس 6:28 PM
قمر الأحدب الأخير

Tomorrow is forecast to be Cooler than today.

الضغط 29.83 في
وضوح الرؤية -9999.0 أميال
سحابات
نقطة الندى 55 °F
الرطوبة 68%
Rainfall 0.00 في
عمق الثلج Not available.
الأشعة فوق البنفسجية Not available.
Pollen Not available.
جودة الهواء Not available.
Flu Activity Not available.
METAR HEAX 171900Z 08006KT CAVOK 19/13 Q1010 NOSIG

More Conditions Fewer Conditions

الضغط 29.83 في
وضوح الرؤية -9999.0 أميال
سحابات
نقطة الندى 55 °F
الرطوبة 68%
Rainfall 0.00 في
عمق الثلج Not available.
الأشعة فوق البنفسجية Not available.
Pollen Not available.
جودة الهواء Not available.
Flu Activity Not available.
METAR HEAX 171900Z 08006KT CAVOK 19/13 Q1010 NOSIG

More Conditions Fewer Conditions

10-Day Forecast

Almanac

علم الفلك

Apr. 17, 2014 Rise Set
Actual Time 5:28 AM EET 6:28 PM EET
Civil Twilight 5:03 AM EET 6:53 PM EET
Nautical Twilight 4:33 AM EET 7:22 PM EET
Astronomical Twilight 4:03 AM EET 7:53 PM EET
قمر 8:46 PM EET 6:50 AM EET
Length Of Visible Light 13h 49m
طول الیوم
12h 59m
Tomorrow will be 1m 48s longer.
الأحدب الأخير, 93% of the Moon is Illuminated
هذا اليوم
الأحدب الأخير
Apr 22
الربع الآخر
Apr 29
New
May 6
الربع الاول
May 14
بدر

Today's Extremes

Country Highs Country Lows

Community

  • New Day
    New Day
  • Lake Michigan Sunrise
    Lake Michigan Sunrise
  • sunset from izmir, narlıdere
    sunset from izmir, narlıdere
  • oregon cherry
    oregon cherry
  • Sunset over the Bay
    Sunset over the Bay

WunderPhotos

Upload Photos

1,702,103 photos uploaded!

Nearby

جودة الهواء

Not available.

عمق الثلج

Not available.

Coastal Water Temperatures

مكان درجات الحرارة
No Stations Reporting

Earthquake Activity

City Distance Mag. Time & Date
No recent earthquake activity has been reported nearby.
Minimum magnitude displayed is 2.5.

Nearby Weather Stations

There are no personal weather stations in this area.

What do you think?

We're not finished. Please let us know what you like, what you don't like, and what you are still missing.